Pagrindinis puslapis
METAR-TAF:

METAR-TAF

Oro uostai :

Mitilėnė-Lesbas, Graikija

platuma: 39-04N, ilguma: 026-36E, Aukštis: 3 m

Dabartinis oras

Ataskaita buvo paskelbta 10 minutes, ne 07:50 UTC
Vėjas 8 kt iš Pietų/Pietryčių
Temperatūra 22°C
Drėgmė 65%
Slėgis 1013 hPa
Matomumas 10 km arba daugiau
Mažai debesys ne aukštis 2000 ft

METAR: LGMT 140750Z 16008KT 9999 FEW020 22/15 Q1013

Laikas: 11:00 (08:00 UTC)

Prognozė

Ataskaita buvo paskelbta 3 valandos ir 0 minutes, ne 05:00 UTC
Prognozė galioja nuo 14 metu 06 UTC su 14 metu 15 UTC
Vėjas 10 kt iš Pietų
Matomumas 10 km arba daugiau
Mažai debesys ne aukštis 1800 ft

TAF: LGMT 140500Z 1406/1415 18010KT 9999 FEW018

Orai ataskaitas ir orų prognozės (METAR, TAF).

turimą stotys yra geltonos ir raudonos taškus žemėlapyje.

Perkelti pele per norėdami pamatyti stoties vardą.

Tada spustelėkite, norėdami matyti oro stebėjimo ir prognozės.

Norėdami pakeisti žemėlapį: spustelėkite ant žalios mygtukų su juodo kryžiaus žemyn,; žalią mygtuką su brūkšneliu, jei norite nutolinti; arba žalių rodyklių gretimoms žemėlapius.


METAR-TAF: